createdAt,value
2017-08-27T00:00:30.596Z,40.90
2017-08-27T00:02:58.970Z,41.00
2017-08-27T00:05:27.319Z,44.50
2017-08-27T00:07:56.444Z,41.30
2017-08-27T00:10:24.815Z,40.90
2017-08-27T00:12:53.496Z,42.90
2017-08-27T00:15:21.842Z,41.33
2017-08-27T00:17:50.210Z,44.30
2017-08-27T00:20:18.563Z,42.70
2017-08-27T00:22:46.921Z,42.80
2017-08-27T00:25:15.282Z,43.30
2017-08-27T00:27:43.650Z,41.63
2017-08-27T00:30:12.015Z,42.20
2017-08-27T00:32:40.365Z,43.50
2017-08-27T00:35:09.515Z,39.50
2017-08-27T00:37:37.869Z,39.07
2017-08-27T00:40:06.226Z,43.60
2017-08-27T00:42:34.607Z,42.37
2017-08-27T00:45:02.994Z,42.07
2017-08-27T00:47:31.577Z,42.63
2017-08-27T00:49:59.926Z,41.90
2017-08-27T00:52:28.302Z,39.70
2017-08-27T00:54:57.431Z,44.27
2017-08-27T00:57:25.790Z,41.10
2017-08-27T00:59:54.172Z,42.30
2017-08-27T01:02:22.548Z,45.97
2017-08-27T01:04:50.894Z,43.67
2017-08-27T01:07:18.581Z,44.47
2017-08-27T01:09:46.578Z,45.70
2017-08-27T01:12:14.930Z,47.83
2017-08-27T01:14:43.288Z,45.90
2017-08-27T01:17:11.779Z,44.50
2017-08-27T01:19:40.417Z,46.50
2017-08-27T01:22:08.765Z,43.57
2017-08-27T01:24:37.214Z,44.20
2017-08-27T01:27:05.689Z,44.60
2017-08-27T01:29:34.030Z,48.13
2017-08-27T01:32:02.390Z,47.77
2017-08-27T01:34:30.779Z,45.73
2017-08-27T01:36:59.151Z,49.03
2017-08-27T01:39:29.207Z,48.53
2017-08-27T01:41:57.635Z,50.63
2017-08-27T01:44:26.015Z,51.50
2017-08-27T01:46:54.388Z,53.87
2017-08-27T01:49:22.747Z,56.20
2017-08-27T01:51:51.113Z,57.10
2017-08-27T01:54:20.242Z,57.40
2017-08-27T01:56:48.593Z,60.33
2017-08-27T01:59:16.973Z,57.67
2017-08-27T02:01:45.349Z,62.43
2017-08-27T02:04:13.989Z,61.07
2017-08-27T02:06:42.351Z,57.97
2017-08-27T02:09:10.752Z,60.80
2017-08-27T02:11:39.335Z,61.63
2017-08-27T02:14:07.963Z,63.27
2017-08-27T02:16:36.318Z,58.87
2017-08-27T02:19:04.676Z,59.57
2017-08-27T02:21:33.047Z,60.37
2017-08-27T02:24:01.433Z,67.00
2017-08-27T02:26:29.598Z,66.00
2017-08-27T02:28:58.051Z,62.93
2017-08-27T02:31:26.482Z,64.03
2017-08-27T02:33:54.865Z,69.27
2017-08-27T02:36:23.281Z,64.90
2017-08-27T02:38:51.624Z,66.87
2017-08-27T02:41:19.974Z,68.23
2017-08-27T02:43:48.641Z,64.93
2017-08-27T02:46:16.997Z,64.37
2017-08-27T02:48:45.569Z,59.77
2017-08-27T02:51:13.914Z,64.97
2017-08-27T02:53:42.287Z,68.70
2017-08-27T02:56:10.634Z,64.00
2017-08-27T02:58:39.175Z,66.43
2017-08-27T03:01:07.859Z,68.47
2017-08-27T03:03:36.219Z,73.20
2017-08-27T03:06:04.618Z,66.97
2017-08-27T03:08:33.292Z,76.03
2017-08-27T03:11:01.666Z,72.40
2017-08-27T03:13:30.020Z,72.83
2017-08-27T03:15:58.420Z,77.97
2017-08-27T03:18:26.798Z,77.27
2017-08-27T03:20:55.377Z,80.40
2017-08-27T03:23:23.734Z,79.87
2017-08-27T03:25:52.091Z,75.50
2017-08-27T03:28:20.456Z,74.80
2017-08-27T03:30:48.881Z,75.57
2017-08-27T03:33:17.225Z,80.20
2017-08-27T03:35:45.596Z,80.30
2017-08-27T03:38:13.973Z,73.17
2017-08-27T03:40:42.335Z,74.40
2017-08-27T03:43:10.954Z,74.07
2017-08-27T03:45:39.442Z,78.00
2017-08-27T03:48:07.793Z,74.63
2017-08-27T03:50:36.166Z,83.30
2017-08-27T03:53:04.629Z,82.40
2017-08-27T03:55:32.811Z,78.50
2017-08-27T03:58:00.981Z,83.33
2017-08-27T04:00:29.357Z,75.07
2017-08-27T04:02:58.485Z,78.37
2017-08-27T04:05:27.065Z,84.77
2017-08-27T04:07:55.424Z,78.27
2017-08-27T04:10:23.793Z,80.50
2017-08-27T04:12:52.315Z,76.00
2017-08-27T04:15:20.666Z,80.40
2017-08-27T04:17:49.027Z,79.97
2017-08-27T04:20:17.382Z,80.77
2017-08-27T04:22:45.750Z,81.37
2017-08-27T04:25:14.111Z,76.53
2017-08-27T04:27:42.493Z,78.00
2017-08-27T04:30:10.845Z,77.50
2017-08-27T04:32:39.500Z,77.87
2017-08-27T04:35:07.880Z,80.60
2017-08-27T04:37:36.241Z,81.50
2017-08-27T04:40:04.594Z,76.97
2017-08-27T04:42:33.081Z,83.53
2017-08-27T04:45:01.433Z,80.80
2017-08-27T04:47:30.004Z,82.20
2017-08-27T04:49:58.436Z,79.67
2017-08-27T04:52:26.916Z,76.97
2017-08-27T04:54:55.293Z,75.50
2017-08-27T04:57:23.662Z,76.27
2017-08-27T04:59:52.863Z,75.93
2017-08-27T05:02:21.219Z,74.43
2017-08-27T05:04:49.573Z,73.57
2017-08-27T05:07:17.944Z,78.20
2017-08-27T05:09:46.314Z,83.40
2017-08-27T05:12:14.664Z,83.43
2017-08-27T05:14:43.118Z,78.93
2017-08-27T05:17:11.466Z,75.53
2017-08-27T05:19:39.839Z,76.97
2017-08-27T05:22:08.969Z,75.87
2017-08-27T05:24:37.362Z,72.97
2017-08-27T05:27:05.739Z,73.67
2017-08-27T05:29:34.119Z,77.03
2017-08-27T05:32:02.495Z,73.53
2017-08-27T05:34:30.851Z,72.10
2017-08-27T05:36:59.226Z,70.50
2017-08-27T05:39:27.801Z,68.50
2017-08-27T05:41:56.145Z,66.23
2017-08-27T05:44:25.274Z,67.37
2017-08-27T05:46:53.848Z,67.37
2017-08-27T05:49:22.447Z,65.57
2017-08-27T05:51:50.811Z,63.67
2017-08-27T05:54:19.180Z,62.40
2017-08-27T05:56:47.567Z,61.37
2017-08-27T05:59:15.909Z,58.37
2017-08-27T06:01:44.263Z,59.93
2017-08-27T06:04:12.634Z,55.43
2017-08-27T06:06:41.218Z,56.90
2017-08-27T06:09:09.562Z,56.57
2017-08-27T06:11:37.923Z,54.00
2017-08-27T06:14:06.275Z,54.83
2017-08-27T06:16:34.634Z,53.10
2017-08-27T06:19:02.995Z,54.63
2017-08-27T06:21:31.363Z,49.50
2017-08-27T06:23:59.729Z,52.37
2017-08-27T06:26:28.263Z,50.67
2017-08-27T06:28:56.694Z,50.90
2017-08-27T06:31:25.067Z,51.20
2017-08-27T06:33:53.437Z,48.57
2017-08-27T06:36:21.795Z,53.37
2017-08-27T06:38:50.426Z,48.73
2017-08-27T06:41:19.750Z,44.70
2017-08-27T06:43:48.099Z,48.10
2017-08-27T06:46:16.470Z,48.47
2017-08-27T06:48:44.833Z,49.17
2017-08-27T06:51:13.253Z,48.00
2017-08-27T06:53:41.426Z,47.80
2017-08-27T06:56:09.786Z,42.97
2017-08-27T06:58:38.379Z,46.00
2017-08-27T07:01:06.543Z,47.93
2017-08-27T07:03:34.904Z,46.27
2017-08-27T07:06:03.259Z,45.50
2017-08-27T07:08:32.704Z,44.00
2017-08-27T07:11:01.079Z,45.23
2017-08-27T07:13:29.438Z,43.50
2017-08-27T07:15:58.075Z,43.83
2017-08-27T07:18:26.451Z,42.90
2017-08-27T07:20:54.813Z,43.53
2017-08-27T07:23:23.174Z,43.80
2017-08-27T07:25:51.742Z,43.10
2017-08-27T07:28:20.101Z,41.93
2017-08-27T07:30:48.563Z,41.20
2017-08-27T07:33:17.605Z,39.90
2017-08-27T07:35:46.094Z,35.77
2017-08-27T07:38:14.451Z,38.83
2017-08-27T07:40:42.823Z,33.07
2017-08-27T07:43:11.395Z,36.07
2017-08-27T07:45:39.750Z,34.20
2017-08-27T07:48:08.882Z,34.60
2017-08-27T07:50:37.243Z,30.77
2017-08-27T07:53:05.822Z,30.00
2017-08-27T07:55:34.165Z,30.60
2017-08-27T07:58:03.303Z,32.30
2017-08-27T08:00:31.874Z,31.53
2017-08-27T08:03:00.244Z,34.23
2017-08-27T08:05:28.432Z,31.57
2017-08-27T08:07:56.603Z,32.23
2017-08-27T08:10:25.008Z,31.07
2017-08-27T08:12:53.362Z,32.03
2017-08-27T08:15:21.815Z,31.43
2017-08-27T08:17:50.192Z,31.40
2017-08-27T08:20:18.627Z,29.43
2017-08-27T08:22:47.001Z,27.53
2017-08-27T08:25:15.367Z,25.17
2017-08-27T08:27:43.746Z,27.00
2017-08-27T08:30:12.109Z,21.00
2017-08-27T08:32:40.476Z,21.97
2017-08-27T08:35:08.838Z,23.83
2017-08-27T08:37:37.207Z,23.93
2017-08-27T08:40:05.575Z,23.60
2017-08-27T08:42:33.883Z,22.53
2017-08-27T08:45:02.244Z,25.03
2017-08-27T08:47:30.608Z,25.40
2017-08-27T08:49:59.080Z,22.20
2017-08-27T08:52:27.437Z,22.90
2017-08-27T08:54:55.807Z,22.77
2017-08-27T08:57:24.192Z,22.30
2017-08-27T08:59:52.641Z,21.53
2017-08-27T09:02:21.043Z,20.80
2017-08-27T09:04:49.643Z,21.57
2017-08-27T09:07:18.010Z,18.43
2017-08-27T09:09:46.370Z,20.50
2017-08-27T09:12:14.735Z,18.37
2017-08-27T09:14:44.063Z,16.20
2017-08-27T09:17:12.575Z,16.57
2017-08-27T09:19:40.932Z,16.67
2017-08-27T09:22:09.295Z,16.27
2017-08-27T09:24:37.684Z,18.40
2017-08-27T09:27:06.350Z,14.50
2017-08-27T09:29:34.736Z,13.80
2017-08-27T09:32:03.795Z,13.63
2017-08-27T09:34:32.202Z,14.90
2017-08-27T09:37:00.672Z,13.77
2017-08-27T09:39:29.034Z,9.47
2017-08-27T09:41:57.384Z,9.77
2017-08-27T09:44:25.868Z,11.00
2017-08-27T09:46:54.233Z,10.33
2017-08-27T09:49:23.382Z,10.53
2017-08-27T09:51:51.567Z,8.80
2017-08-27T09:54:19.927Z,9.33
2017-08-27T09:56:48.277Z,8.40
2017-08-27T09:59:16.648Z,8.97
2017-08-27T10:01:45.112Z,10.30
2017-08-27T10:04:13.466Z,12.33
2017-08-27T10:06:41.826Z,13.63
2017-08-27T10:09:10.184Z,11.80
2017-08-27T10:11:38.766Z,13.60
2017-08-27T10:14:07.235Z,11.83
2017-08-27T10:16:35.592Z,11.47
2017-08-27T10:19:03.964Z,9.20
2017-08-27T10:21:32.473Z,8.73
2017-08-27T10:24:00.826Z,8.93
2017-08-27T10:26:29.179Z,9.83
2017-08-27T10:28:57.538Z,9.70
2017-08-27T10:31:25.897Z,9.10
2017-08-27T10:33:54.317Z,9.00
2017-08-27T10:36:22.688Z,7.50
2017-08-27T10:38:51.088Z,8.30
2017-08-27T10:41:19.465Z,7.93
2017-08-27T10:43:47.807Z,8.50
2017-08-27T10:46:15.976Z,8.90
2017-08-27T10:48:44.362Z,10.87
2017-08-27T10:51:12.719Z,9.67
2017-08-27T10:53:41.848Z,8.73
2017-08-27T10:56:10.369Z,7.70
2017-08-27T10:58:38.730Z,8.30
2017-08-27T11:01:07.094Z,7.40
2017-08-27T11:03:35.666Z,7.00
2017-08-27T11:06:04.042Z,8.17
2017-08-27T11:08:32.417Z,8.93
2017-08-27T11:11:00.856Z,9.87
2017-08-27T11:13:29.205Z,7.70
2017-08-27T11:15:57.567Z,8.40
2017-08-27T11:18:25.930Z,8.30
2017-08-27T11:20:55.012Z,7.00
2017-08-27T11:23:23.350Z,6.80
2017-08-27T11:25:51.731Z,7.10
2017-08-27T11:28:20.087Z,6.87
2017-08-27T11:30:48.439Z,7.10
2017-08-27T11:33:16.796Z,6.90
2017-08-27T11:35:45.161Z,6.30
2017-08-27T11:38:13.523Z,5.77
2017-08-27T11:40:41.883Z,6.37
2017-08-27T11:43:10.239Z,6.30
2017-08-27T11:45:38.614Z,6.90
2017-08-27T11:48:06.996Z,6.20
2017-08-27T11:50:35.359Z,6.20
2017-08-27T11:53:03.722Z,5.67
2017-08-27T11:55:32.428Z,6.77
2017-08-27T11:58:00.800Z,6.33
2017-08-27T12:00:29.141Z,5.80
2017-08-27T12:02:57.521Z,5.70
2017-08-27T12:05:25.983Z,6.20
2017-08-27T12:07:54.414Z,5.07
2017-08-27T12:10:22.774Z,4.90
2017-08-27T12:12:51.127Z,4.83
2017-08-27T12:15:19.487Z,5.03
2017-08-27T12:17:47.831Z,5.10
2017-08-27T12:20:16.964Z,5.23
2017-08-27T12:22:45.336Z,5.53
2017-08-27T12:25:14.489Z,5.23
2017-08-27T12:27:42.898Z,3.70
2017-08-27T12:30:11.256Z,5.13
2017-08-27T12:32:39.446Z,5.73
2017-08-27T12:35:07.786Z,4.40
2017-08-27T12:37:36.164Z,4.53
2017-08-27T12:40:04.575Z,4.70
2017-08-27T12:42:32.942Z,4.90
2017-08-27T12:45:01.295Z,5.00
2017-08-27T12:47:29.655Z,4.27
2017-08-27T12:49:58.010Z,4.80
2017-08-27T12:52:26.372Z,4.40
2017-08-27T12:54:54.826Z,4.73
2017-08-27T12:57:23.174Z,4.33
2017-08-27T12:59:51.542Z,4.20
2017-08-27T13:02:19.890Z,3.90
2017-08-27T13:04:48.306Z,4.53
2017-08-27T13:07:16.668Z,4.57
2017-08-27T13:09:45.029Z,4.40
2017-08-27T13:12:13.396Z,4.30
2017-08-27T13:14:41.831Z,4.33
2017-08-27T13:17:10.310Z,4.17
2017-08-27T13:19:38.683Z,4.30
2017-08-27T13:22:07.037Z,4.30
2017-08-27T13:24:35.470Z,4.23
2017-08-27T13:27:03.828Z,4.60
2017-08-27T13:29:32.002Z,3.83
2017-08-27T13:32:00.367Z,4.20
2017-08-27T13:34:28.719Z,4.50
2017-08-27T13:36:57.068Z,4.40
2017-08-27T13:39:25.588Z,3.83
2017-08-27T13:41:53.960Z,3.80
2017-08-27T13:44:22.341Z,3.70
2017-08-27T13:46:50.718Z,4.30
2017-08-27T13:49:19.080Z,3.50
2017-08-27T13:51:47.429Z,3.20
2017-08-27T13:54:15.802Z,4.40
2017-08-27T13:56:44.146Z,3.70
2017-08-27T13:59:12.502Z,3.80
2017-08-27T14:01:40.968Z,3.90
2017-08-27T14:04:09.327Z,3.47
2017-08-27T14:06:37.831Z,3.67
2017-08-27T14:09:06.178Z,3.50
2017-08-27T14:11:34.526Z,3.87
2017-08-27T14:14:02.902Z,3.80
2017-08-27T14:16:31.295Z,3.67
2017-08-27T14:18:59.901Z,3.27
2017-08-27T14:21:28.273Z,3.60
2017-08-27T14:23:56.454Z,3.90
2017-08-27T14:26:24.800Z,3.97
2017-08-27T14:28:53.410Z,4.20
2017-08-27T14:31:21.771Z,3.27
2017-08-27T14:33:50.133Z,4.03
2017-08-27T14:36:18.487Z,4.30
2017-08-27T14:38:47.628Z,3.20
2017-08-27T14:41:16.006Z,3.13
2017-08-27T14:43:44.580Z,3.53
2017-08-27T14:46:12.960Z,3.67
2017-08-27T14:48:41.127Z,4.10
2017-08-27T14:51:09.479Z,4.17
2017-08-27T14:53:37.835Z,4.37
2017-08-27T14:56:06.188Z,3.90
2017-08-27T14:58:34.541Z,3.93
2017-08-27T15:01:03.275Z,4.50
2017-08-27T15:03:31.635Z,4.00
2017-08-27T15:06:00.274Z,3.93
2017-08-27T15:08:29.395Z,4.40
2017-08-27T15:10:57.747Z,4.10
2017-08-27T15:13:26.100Z,4.27
2017-08-27T15:15:54.491Z,4.10
2017-08-27T15:18:22.842Z,3.43
2017-08-27T15:20:51.207Z,3.60
2017-08-27T15:23:19.519Z,4.00
2017-08-27T15:25:47.901Z,4.57
2017-08-27T15:28:16.300Z,4.30
2017-08-27T15:30:44.676Z,3.80
2017-08-27T15:33:13.039Z,4.27
2017-08-27T15:35:41.705Z,3.70
2017-08-27T15:38:10.075Z,3.67
2017-08-27T15:40:38.430Z,3.97
2017-08-27T15:43:07.558Z,4.40
2017-08-27T15:45:35.921Z,2.97
2017-08-27T15:48:04.277Z,3.60
2017-08-27T15:50:32.627Z,4.50
2017-08-27T15:53:01.193Z,3.77
2017-08-27T15:55:29.560Z,3.97
2017-08-27T15:57:57.911Z,4.63
2017-08-27T16:00:27.303Z,3.97
2017-08-27T16:02:55.679Z,4.13
2017-08-27T16:05:24.615Z,4.20
2017-08-27T16:07:53.044Z,3.60
2017-08-27T16:10:21.386Z,4.27
2017-08-27T16:12:49.563Z,4.50
2017-08-27T16:15:17.920Z,4.40
2017-08-27T16:17:46.278Z,4.37
2017-08-27T16:20:14.655Z,4.77
2017-08-27T16:22:42.831Z,3.93
2017-08-27T16:25:11.065Z,4.60
2017-08-27T16:27:39.742Z,5.07
2017-08-27T16:30:07.920Z,4.70
2017-08-27T16:32:36.176Z,5.10
2017-08-27T16:35:04.344Z,4.37
2017-08-27T16:37:32.531Z,4.07
2017-08-27T16:40:00.798Z,4.13
2017-08-27T16:42:29.111Z,4.93
2017-08-27T16:44:57.283Z,3.97
2017-08-27T16:47:36.617Z,4.23
2017-08-27T16:50:04.818Z,5.10
2017-08-27T16:52:33.242Z,5.30
2017-08-27T16:55:01.607Z,5.30
2017-08-27T16:57:29.959Z,4.87
2017-08-27T16:59:58.307Z,5.70
2017-08-27T17:02:26.676Z,4.87
2017-08-27T17:04:55.222Z,4.97
2017-08-27T17:07:23.896Z,4.70
2017-08-27T17:09:52.092Z,4.70
2017-08-27T17:12:20.283Z,4.60
2017-08-27T17:14:48.467Z,4.50
2017-08-27T17:17:16.637Z,4.83
2017-08-27T17:19:44.853Z,5.03
2017-08-27T17:22:13.026Z,4.40
2017-08-27T17:24:41.214Z,4.27
2017-08-27T17:27:09.378Z,4.50
2017-08-27T17:29:37.557Z,4.57
2017-08-27T17:32:05.732Z,4.10
2017-08-27T17:34:33.927Z,4.90
2017-08-27T17:37:02.097Z,4.47
2017-08-27T17:39:30.264Z,4.00
2017-08-27T17:41:58.433Z,4.07
2017-08-27T17:44:26.602Z,4.00
2017-08-27T17:46:54.769Z,4.03
2017-08-27T17:49:23.001Z,4.70
2017-08-27T17:51:51.248Z,4.73
2017-08-27T17:54:19.425Z,4.70
2017-08-27T17:56:47.607Z,4.23
2017-08-27T17:59:15.762Z,4.60
2017-08-27T18:01:43.934Z,4.57
2017-08-27T18:04:12.874Z,4.40
2017-08-27T18:06:41.048Z,4.60
2017-08-27T18:09:09.236Z,5.00
2017-08-27T18:11:37.400Z,4.70
2017-08-27T18:14:05.761Z,4.80
2017-08-27T18:16:33.940Z,4.37
2017-08-27T18:19:02.311Z,4.60
2017-08-27T18:21:30.688Z,4.60
2017-08-27T18:23:59.249Z,5.10
2017-08-27T18:26:27.598Z,4.70
2017-08-27T18:28:55.981Z,4.33
2017-08-27T18:31:24.349Z,4.83
2017-08-27T18:33:52.543Z,4.50
2017-08-27T18:36:21.142Z,4.80
2017-08-27T18:38:49.518Z,4.90
2017-08-27T18:41:17.882Z,4.80
2017-08-27T18:43:46.277Z,4.50
2017-08-27T18:46:14.632Z,5.27
2017-08-27T18:48:43.070Z,4.40
2017-08-27T18:51:12.298Z,4.33
2017-08-27T18:53:40.770Z,4.53
2017-08-27T18:56:09.111Z,5.17
2017-08-27T18:58:37.474Z,4.70
2017-08-27T19:01:05.844Z,4.60
2017-08-27T19:03:34.026Z,4.97
2017-08-27T19:06:02.413Z,4.70
2017-08-27T19:08:30.843Z,4.90
2017-08-27T19:10:59.397Z,4.80
2017-08-27T19:13:27.817Z,5.53
2017-08-27T19:15:55.978Z,4.90
2017-08-27T19:18:24.151Z,4.73
2017-08-27T19:20:52.339Z,4.90
2017-08-27T19:23:20.699Z,5.00
2017-08-27T19:25:49.287Z,5.47
2017-08-27T19:28:17.634Z,5.73
2017-08-27T19:30:46.003Z,6.10
2017-08-27T19:33:14.372Z,5.57
2017-08-27T19:35:42.751Z,4.93
2017-08-27T19:38:11.111Z,5.50
2017-08-27T19:40:39.501Z,5.10
2017-08-27T19:43:07.976Z,5.70
2017-08-27T19:45:36.347Z,5.00
2017-08-27T19:48:04.728Z,5.20
2017-08-27T19:50:32.999Z,5.50
2017-08-27T19:53:01.364Z,4.83
2017-08-27T19:55:29.750Z,5.30
2017-08-27T19:57:58.139Z,5.33
2017-08-27T20:00:26.499Z,5.03
2017-08-27T20:02:54.710Z,5.97
2017-08-27T20:05:23.128Z,5.57
2017-08-27T20:07:51.748Z,5.10
2017-08-27T20:10:20.134Z,5.43
2017-08-27T20:12:48.533Z,5.57
2017-08-27T20:15:16.911Z,5.73
2017-08-27T20:17:45.282Z,5.57
2017-08-27T20:20:13.662Z,5.57
2017-08-27T20:22:42.031Z,5.80
2017-08-27T20:25:10.671Z,5.73
2017-08-27T20:27:39.022Z,5.60
2017-08-27T20:30:07.419Z,4.83
2017-08-27T20:32:35.491Z,5.60
2017-08-27T20:35:03.869Z,5.57
2017-08-27T20:37:32.549Z,5.80
2017-08-27T20:40:01.000Z,5.17
2017-08-27T20:42:29.403Z,5.60
2017-08-27T20:44:57.755Z,5.50
2017-08-27T20:47:26.119Z,5.67
2017-08-27T20:49:54.687Z,5.50
2017-08-27T20:52:23.036Z,5.43
2017-08-27T20:54:51.396Z,5.97
2017-08-27T20:57:20.036Z,5.93
2017-08-27T20:59:48.407Z,6.10
2017-08-27T21:02:16.776Z,5.70
2017-08-27T21:04:45.144Z,5.37
2017-08-27T21:07:13.671Z,5.60
2017-08-27T21:09:42.011Z,6.00
2017-08-27T21:12:11.156Z,6.00
2017-08-27T21:14:39.714Z,6.20
2017-08-27T21:17:08.124Z,5.60
2017-08-27T21:19:36.475Z,5.57
2017-08-27T21:22:05.154Z,5.10
2017-08-27T21:24:33.507Z,4.93
2017-08-27T21:27:01.879Z,5.23
2017-08-27T21:29:30.998Z,5.30
2017-08-27T21:31:59.363Z,5.40
2017-08-27T21:34:27.719Z,5.27
2017-08-27T21:36:56.085Z,5.10
2017-08-27T21:39:24.668Z,5.30
2017-08-27T21:41:53.079Z,5.10
2017-08-27T21:44:21.422Z,5.13
2017-08-27T21:46:49.936Z,4.70
2017-08-27T21:49:18.320Z,4.90
2017-08-27T21:51:46.668Z,5.20
2017-08-27T21:54:15.040Z,4.30
2017-08-27T21:56:43.398Z,5.23
2017-08-27T21:59:11.771Z,4.80
2017-08-27T22:01:40.144Z,5.20
2017-08-27T22:04:08.516Z,4.80
2017-08-27T22:06:36.867Z,5.47
2017-08-27T22:09:04.601Z,4.50
2017-08-27T22:11:32.972Z,4.57
2017-08-27T22:14:01.453Z,4.70
2017-08-27T22:16:29.799Z,4.80
2017-08-27T22:18:58.163Z,4.70
2017-08-27T22:21:26.727Z,4.30
2017-08-27T22:23:55.064Z,5.43
2017-08-27T22:26:23.534Z,5.97
2017-08-27T22:28:51.883Z,5.50
2017-08-27T22:31:20.249Z,5.00
2017-08-27T22:33:48.596Z,5.70
2017-08-27T22:36:17.141Z,5.57
2017-08-27T22:38:45.500Z,5.63
2017-08-27T22:41:13.850Z,5.60
2017-08-27T22:43:42.264Z,5.40
2017-08-27T22:46:10.745Z,6.20
2017-08-27T22:48:38.899Z,5.77
2017-08-27T22:51:07.249Z,5.90
2017-08-27T22:53:35.619Z,6.13
2017-08-27T22:56:03.991Z,7.07
2017-08-27T22:58:32.159Z,6.10
2017-08-27T23:01:00.911Z,6.67
2017-08-27T23:03:29.335Z,7.20
2017-08-27T23:05:57.698Z,6.50
2017-08-27T23:08:26.331Z,6.23
2017-08-27T23:10:54.667Z,6.50
2017-08-27T23:13:26.755Z,6.90
2017-08-27T23:15:55.116Z,6.90
2017-08-27T23:18:23.471Z,6.83
2017-08-27T23:20:51.839Z,6.23
2017-08-27T23:23:20.189Z,6.30
2017-08-27T23:25:48.365Z,6.80
2017-08-27T23:28:16.803Z,6.80
2017-08-27T23:30:45.159Z,6.20
2017-08-27T23:33:14.277Z,6.80
2017-08-27T23:35:42.765Z,6.50
2017-08-27T23:38:11.366Z,5.80
2017-08-27T23:40:39.730Z,6.70
2017-08-27T23:43:08.198Z,6.10
2017-08-27T23:45:36.546Z,6.00
2017-08-27T23:48:04.912Z,6.70
2017-08-27T23:50:33.267Z,5.90
2017-08-27T23:53:01.609Z,6.23
2017-08-27T23:55:29.979Z,5.63
2017-08-27T23:57:58.353Z,6.37
